createdAt,value
2022-11-06T00:01:14.211Z,1.67
2022-11-06T00:03:42.026Z,2.08
2022-11-06T00:06:34.452Z,1.67
2022-11-06T00:09:04.281Z,1.40
2022-11-06T00:11:31.220Z,2.97
2022-11-06T00:13:59.814Z,2.05
2022-11-06T00:16:26.571Z,2.47
2022-11-06T00:18:53.874Z,1.83
2022-11-06T00:21:23.974Z,2.83
2022-11-06T00:23:51.683Z,2.00
2022-11-06T00:26:20.770Z,2.03
2022-11-06T00:28:48.602Z,2.03
2022-11-06T00:31:18.621Z,2.08
2022-11-06T00:33:45.455Z,2.17
2022-11-06T00:36:20.944Z,1.65
2022-11-06T00:38:48.168Z,2.00
2022-11-06T00:41:16.735Z,2.53
2022-11-06T00:43:48.832Z,1.63
2022-11-06T00:46:16.390Z,1.87
2022-11-06T00:48:43.152Z,1.95
2022-11-06T00:51:23.058Z,1.67
2022-11-06T00:53:58.193Z,2.30
2022-11-06T00:56:25.769Z,1.80
2022-11-06T00:58:53.430Z,1.98
2022-11-06T01:01:27.540Z,1.98
2022-11-06T01:04:03.598Z,1.63
2022-11-06T01:06:33.649Z,1.58
2022-11-06T01:09:01.669Z,2.05
2022-11-06T01:11:52.334Z,2.08
2022-11-06T01:14:20.143Z,2.13
2022-11-06T01:16:47.733Z,1.55
2022-11-06T01:19:17.293Z,1.98
2022-11-06T01:21:46.012Z,2.90
2022-11-06T01:24:19.820Z,2.05
2022-11-06T01:27:12.157Z,2.40
2022-11-06T01:29:33.700Z,2.30
2022-11-06T01:32:00.503Z,1.80
2022-11-06T01:34:27.323Z,2.67
2022-11-06T01:36:54.141Z,1.75
2022-11-06T01:39:21.040Z,2.15
2022-11-06T01:41:50.573Z,2.13
2022-11-06T01:44:35.664Z,1.50
2022-11-06T01:47:05.092Z,2.97
2022-11-06T01:49:36.108Z,2.75
2022-11-06T01:52:08.523Z,2.65
2022-11-06T01:54:37.454Z,2.75
2022-11-06T01:57:05.311Z,1.73
2022-11-06T01:59:35.850Z,1.92
2022-11-06T02:02:03.210Z,1.65
2022-11-06T02:04:36.045Z,2.35
2022-11-06T02:07:03.888Z,2.47
2022-11-06T02:09:33.108Z,2.50
2022-11-06T02:12:24.413Z,1.80
2022-11-06T02:15:15.889Z,1.65
2022-11-06T02:18:29.270Z,2.05
2022-11-06T02:21:25.328Z,2.85
2022-11-06T02:24:08.862Z,2.03
2022-11-06T02:29:49.658Z,2.28
2022-11-06T02:32:48.942Z,2.83
2022-11-06T02:35:18.523Z,2.00
2022-11-06T02:37:48.642Z,2.10
2022-11-06T02:40:16.520Z,2.20
2022-11-06T02:42:48.481Z,2.05
2022-11-06T02:45:17.375Z,1.77
2022-11-06T02:47:48.186Z,2.20
2022-11-06T02:50:30.670Z,2.85
2022-11-06T02:53:07.558Z,1.67
2022-11-06T02:55:37.185Z,2.42
2022-11-06T02:58:11.119Z,2.03
2022-11-06T03:00:40.719Z,2.15
2022-11-06T03:03:15.629Z,2.30
2022-11-06T03:05:58.118Z,2.35
2022-11-06T03:08:39.506Z,2.23
2022-11-06T03:11:16.095Z,1.63
2022-11-06T03:13:58.412Z,2.10
2022-11-06T03:16:43.962Z,1.73
2022-11-06T03:19:45.350Z,1.50
2022-11-06T03:22:25.717Z,1.92
2022-11-06T03:25:02.489Z,1.85
2022-11-06T03:27:35.530Z,2.85
2022-11-06T03:30:11.397Z,2.38
2022-11-06T03:32:57.601Z,2.38
2022-11-06T03:35:33.146Z,1.63
2022-11-06T03:38:19.751Z,1.98
2022-11-06T03:40:52.912Z,2.42
2022-11-06T03:45:52.210Z,2.13
2022-11-06T03:48:25.980Z,1.80
2022-11-06T03:50:58.814Z,2.33
2022-11-06T03:53:36.225Z,2.58
2022-11-06T03:56:09.092Z,2.53
2022-11-06T03:58:42.799Z,2.13
2022-11-06T04:01:12.148Z,1.88
2022-11-06T04:03:59.761Z,2.58
2022-11-06T04:06:41.334Z,2.05
2022-11-06T04:09:29.683Z,2.55
2022-11-06T04:12:17.809Z,2.67
2022-11-06T04:14:48.891Z,1.90
2022-11-06T04:17:16.907Z,2.78
2022-11-06T04:19:49.882Z,1.95
2022-11-06T04:22:36.772Z,2.25
2022-11-06T04:25:44.980Z,1.90
2022-11-06T04:28:34.721Z,2.05
2022-11-06T04:31:04.512Z,1.77
2022-11-06T04:33:48.290Z,1.50
2022-11-06T04:36:21.244Z,2.45
2022-11-06T04:38:57.245Z,1.75
2022-11-06T04:41:34.552Z,2.35
2022-11-06T04:44:18.043Z,1.67
2022-11-06T04:46:54.712Z,2.25
2022-11-06T04:49:22.922Z,2.28
2022-11-06T04:51:49.905Z,2.85
2022-11-06T04:54:17.596Z,1.70
2022-11-06T04:56:46.297Z,1.80
2022-11-06T04:59:16.162Z,1.67
2022-11-06T05:01:43.115Z,2.38
2022-11-06T05:04:11.338Z,2.15
2022-11-06T05:06:38.360Z,1.33
2022-11-06T05:09:05.182Z,1.80
2022-11-06T05:11:31.989Z,1.85
2022-11-06T05:13:58.833Z,2.20
2022-11-06T05:16:25.690Z,2.05
2022-11-06T05:18:52.447Z,1.83
2022-11-06T05:21:37.973Z,2.17
2022-11-06T05:24:05.462Z,2.17
2022-11-06T05:26:33.360Z,1.98
2022-11-06T05:29:00.334Z,2.33
2022-11-06T05:31:27.861Z,1.70
2022-11-06T05:33:54.678Z,1.77
2022-11-06T05:36:21.551Z,2.58
2022-11-06T05:38:48.273Z,1.83
2022-11-06T05:41:15.301Z,1.63
2022-11-06T05:43:42.199Z,1.60
2022-11-06T05:46:29.544Z,2.10
2022-11-06T05:48:56.782Z,1.35
2022-11-06T05:51:23.546Z,1.90
2022-11-06T05:53:50.309Z,1.65
2022-11-06T05:56:17.209Z,1.35
2022-11-06T05:58:44.171Z,1.38
2022-11-06T06:01:11.687Z,1.90
2022-11-06T06:03:38.464Z,1.88
2022-11-06T06:06:05.401Z,1.70
2022-11-06T06:08:32.229Z,1.80
2022-11-06T06:10:59.129Z,1.80
2022-11-06T06:13:25.931Z,2.08
2022-11-06T06:15:52.765Z,1.80
2022-11-06T06:18:19.454Z,1.90
2022-11-06T06:20:46.234Z,1.83
2022-11-06T06:23:12.954Z,1.27
2022-11-06T06:25:39.742Z,2.08
2022-11-06T06:28:06.480Z,1.60
2022-11-06T06:30:34.125Z,1.50
2022-11-06T06:33:05.567Z,1.98
2022-11-06T06:35:32.733Z,1.38
2022-11-06T06:37:59.819Z,1.67
2022-11-06T06:40:27.465Z,1.17
2022-11-06T06:42:58.055Z,1.75
2022-11-06T06:45:26.146Z,1.80
2022-11-06T06:47:53.087Z,1.80
2022-11-06T06:50:20.385Z,1.60
2022-11-06T06:52:47.575Z,1.98
2022-11-06T06:55:14.428Z,1.60
2022-11-06T06:57:41.141Z,1.60
2022-11-06T07:00:08.565Z,2.58
2022-11-06T07:02:35.345Z,1.50
2022-11-06T07:05:02.146Z,1.40
2022-11-06T07:07:29.036Z,1.55
2022-11-06T07:09:55.998Z,1.15
2022-11-06T07:12:23.006Z,1.60
2022-11-06T07:14:49.809Z,1.20
2022-11-06T07:17:16.811Z,1.63
2022-11-06T07:19:43.608Z,1.20
2022-11-06T07:22:10.411Z,1.63
2022-11-06T07:24:37.195Z,1.70
2022-11-06T07:27:04.661Z,1.85
2022-11-06T07:29:31.475Z,1.55
2022-11-06T07:31:58.421Z,2.17
2022-11-06T07:34:25.354Z,2.15
2022-11-06T07:36:52.446Z,1.80
2022-11-06T07:39:19.363Z,1.45
2022-11-06T07:41:46.312Z,1.83
2022-11-06T07:44:13.356Z,1.52
2022-11-06T07:46:40.103Z,2.25
2022-11-06T07:49:07.002Z,1.65
2022-11-06T07:51:33.790Z,1.75
2022-11-06T07:54:00.708Z,1.42
2022-11-06T07:56:27.422Z,1.80
2022-11-06T07:58:54.203Z,1.65
2022-11-06T08:01:21.150Z,2.15
2022-11-06T08:03:48.206Z,2.15
2022-11-06T08:06:15.107Z,2.33
2022-11-06T08:08:41.915Z,2.13
2022-11-06T08:11:10.997Z,2.15
2022-11-06T08:13:38.386Z,2.10
2022-11-06T08:16:13.349Z,1.80
2022-11-06T08:18:41.141Z,2.42
2022-11-06T08:21:08.271Z,1.85
2022-11-06T08:23:35.777Z,2.20
2022-11-06T08:26:04.311Z,2.13
2022-11-06T08:28:31.253Z,2.50
2022-11-06T08:30:58.077Z,2.28
2022-11-06T08:33:25.019Z,2.15
2022-11-06T08:35:51.909Z,1.75
2022-11-06T08:38:19.114Z,1.70
2022-11-06T08:40:50.762Z,1.83
2022-11-06T08:43:20.587Z,2.15
2022-11-06T08:45:47.483Z,2.30
2022-11-06T08:48:14.198Z,1.98
2022-11-06T08:50:41.876Z,1.92
2022-11-06T08:53:09.198Z,3.38
2022-11-06T08:55:38.309Z,1.83
2022-11-06T08:58:06.536Z,1.92
2022-11-06T09:00:34.240Z,1.42
2022-11-06T09:03:02.735Z,1.60
2022-11-06T09:05:30.927Z,2.03
2022-11-06T09:07:58.613Z,1.67
2022-11-06T09:10:26.623Z,1.30
2022-11-06T09:12:53.468Z,1.70
2022-11-06T09:15:20.533Z,1.95
2022-11-06T09:17:49.170Z,1.75
2022-11-06T09:20:18.807Z,1.77
2022-11-06T09:22:46.807Z,1.52
2022-11-06T09:25:14.658Z,2.00
2022-11-06T09:27:58.596Z,1.55
2022-11-06T09:30:28.827Z,1.33
2022-11-06T09:33:00.899Z,1.40
2022-11-06T09:35:29.683Z,1.58
2022-11-06T09:38:04.902Z,1.63
2022-11-06T09:40:36.057Z,1.33
2022-11-06T09:43:12.650Z,1.30
2022-11-06T09:45:41.148Z,1.55
2022-11-06T09:48:10.565Z,1.67
2022-11-06T09:51:12.694Z,1.73
2022-11-06T09:53:50.441Z,1.88
2022-11-06T09:56:20.127Z,1.33
2022-11-06T09:58:48.113Z,1.27
2022-11-06T10:01:27.793Z,1.05
2022-11-06T10:04:02.631Z,1.52
2022-11-06T10:06:30.150Z,1.40
2022-11-06T10:09:01.046Z,1.10
2022-11-06T10:11:59.975Z,1.40
2022-11-06T10:14:47.779Z,1.23
2022-11-06T10:17:35.779Z,1.20
2022-11-06T10:20:18.100Z,1.40
2022-11-06T10:23:18.804Z,1.40
2022-11-06T10:26:00.732Z,1.23
2022-11-06T10:28:46.055Z,1.10
2022-11-06T10:31:51.435Z,1.42
2022-11-06T10:34:30.067Z,1.10
2022-11-06T10:37:12.587Z,1.23
2022-11-06T10:39:40.298Z,1.20
2022-11-06T10:42:14.688Z,1.60
2022-11-06T10:44:47.197Z,1.17
2022-11-06T10:47:27.687Z,2.22
2022-11-06T10:49:57.747Z,1.45
2022-11-06T10:52:59.441Z,1.00
2022-11-06T10:55:32.567Z,1.77
2022-11-06T10:58:13.854Z,1.17
2022-11-06T11:00:41.299Z,1.15
2022-11-06T11:03:28.110Z,1.02
2022-11-06T11:05:55.737Z,1.35
2022-11-06T11:08:32.802Z,1.23
2022-11-06T11:11:15.979Z,1.15
2022-11-06T11:14:02.772Z,1.02
2022-11-06T11:16:34.362Z,1.63
2022-11-06T11:19:35.061Z,1.45
2022-11-06T11:22:16.840Z,1.20
2022-11-06T11:25:00.744Z,1.40
2022-11-06T11:27:49.029Z,1.08
2022-11-06T11:30:26.314Z,1.70
2022-11-06T11:32:54.123Z,1.58
2022-11-06T11:35:29.380Z,1.20
2022-11-06T11:38:09.803Z,1.17
2022-11-06T11:40:38.635Z,0.90
2022-11-06T11:43:25.813Z,1.38
2022-11-06T11:46:10.633Z,1.80
2022-11-06T11:48:43.603Z,1.45
2022-11-06T11:51:27.049Z,1.63
2022-11-06T11:53:57.194Z,2.20
2022-11-06T11:56:49.736Z,1.35
2022-11-06T11:59:19.054Z,0.95
2022-11-06T12:01:47.473Z,1.30
2022-11-06T12:04:26.803Z,1.02
2022-11-06T12:07:06.775Z,1.13
2022-11-06T12:09:43.396Z,1.60
2022-11-06T12:12:39.715Z,1.50
2022-11-06T12:15:12.398Z,1.30
2022-11-06T12:17:41.359Z,1.00
2022-11-06T12:20:15.357Z,1.50
2022-11-06T12:22:46.013Z,1.27
2022-11-06T12:25:22.424Z,1.30
2022-11-06T12:27:56.878Z,1.40
2022-11-06T12:30:23.826Z,1.90
2022-11-06T12:33:03.223Z,1.10
2022-11-06T12:35:29.974Z,1.25
2022-11-06T12:38:15.388Z,1.27
2022-11-06T12:40:55.518Z,1.45
2022-11-06T12:43:52.061Z,1.10
2022-11-06T12:46:28.099Z,1.33
2022-11-06T12:49:22.854Z,1.10
2022-11-06T12:52:08.454Z,1.13
2022-11-06T12:54:47.046Z,1.45
2022-11-06T12:57:32.723Z,1.20
2022-11-06T13:00:19.503Z,1.10
2022-11-06T13:03:04.836Z,1.20
2022-11-06T13:06:12.828Z,1.15
2022-11-06T13:09:03.134Z,0.98
2022-11-06T13:11:52.425Z,1.27
2022-11-06T13:14:30.166Z,1.40
2022-11-06T13:17:02.980Z,1.00
2022-11-06T13:19:38.560Z,1.02
2022-11-06T13:22:24.157Z,0.93
2022-11-06T13:25:40.726Z,1.23
2022-11-06T13:28:42.734Z,1.15
2022-11-06T13:31:13.394Z,1.23
2022-11-06T13:33:46.942Z,1.45
2022-11-06T13:36:14.864Z,1.30
2022-11-06T13:39:06.869Z,0.88
2022-11-06T13:41:33.882Z,0.90
2022-11-06T13:44:11.123Z,0.80
2022-11-06T13:46:59.512Z,0.90
2022-11-06T13:49:56.198Z,0.75
2022-11-06T13:52:40.430Z,1.20
2022-11-06T13:55:39.193Z,0.90
2022-11-06T13:58:32.450Z,1.13
2022-11-06T14:01:34.670Z,1.02
2022-11-06T14:04:39.737Z,0.93
2022-11-06T14:07:09.045Z,0.68
2022-11-06T14:09:37.967Z,1.02
2022-11-06T14:12:13.987Z,1.45
2022-11-06T14:14:42.327Z,0.82
2022-11-06T14:17:18.027Z,0.73
2022-11-06T14:19:51.221Z,1.10
2022-11-06T14:22:30.239Z,1.00
2022-11-06T14:25:01.496Z,2.72
2022-11-06T14:27:28.698Z,1.02
2022-11-06T14:29:57.913Z,0.60
2022-11-06T14:32:41.638Z,1.50
2022-11-06T14:35:30.041Z,0.90
2022-11-06T14:38:17.491Z,0.90
2022-11-06T14:40:44.747Z,0.88
2022-11-06T14:43:24.631Z,1.20
2022-11-06T14:45:58.747Z,1.08
2022-11-06T14:48:36.918Z,1.25
2022-11-06T14:51:06.599Z,1.00
2022-11-06T14:53:38.723Z,0.77
2022-11-06T14:56:08.954Z,0.70
2022-11-06T14:58:47.055Z,0.73
2022-11-06T15:01:16.361Z,0.80
2022-11-06T15:04:03.056Z,1.08
2022-11-06T15:06:33.021Z,1.23
2022-11-06T15:09:01.632Z,1.08
2022-11-06T15:11:46.613Z,1.10
2022-11-06T15:14:14.865Z,1.02
2022-11-06T15:16:51.277Z,0.98
2022-11-06T15:19:29.132Z,0.70
2022-11-06T15:22:14.991Z,1.10
2022-11-06T15:24:51.634Z,1.05
2022-11-06T15:27:21.646Z,1.15
2022-11-06T15:29:53.032Z,1.15
2022-11-06T15:32:23.806Z,1.05
2022-11-06T15:34:53.550Z,1.20
2022-11-06T15:37:24.288Z,0.98
2022-11-06T15:39:59.182Z,1.17
2022-11-06T15:42:34.461Z,1.30
2022-11-06T15:45:21.466Z,1.00
2022-11-06T15:48:01.617Z,0.75
2022-11-06T15:50:29.569Z,0.70
2022-11-06T15:53:18.322Z,1.00
2022-11-06T15:56:05.430Z,1.10
2022-11-06T15:58:35.040Z,0.95
2022-11-06T16:01:03.615Z,1.20
2022-11-06T16:03:33.068Z,0.77
2022-11-06T16:06:04.424Z,1.08
2022-11-06T16:08:32.503Z,0.90
2022-11-06T16:11:01.433Z,0.95
2022-11-06T16:13:28.787Z,0.90
2022-11-06T16:15:57.218Z,1.00
2022-11-06T16:18:35.837Z,1.02
2022-11-06T16:21:21.058Z,2.10
2022-11-06T16:23:57.433Z,1.08
2022-11-06T16:26:48.978Z,1.00
2022-11-06T16:29:30.221Z,0.50
2022-11-06T16:32:09.266Z,0.60
2022-11-06T16:34:45.911Z,0.90
2022-11-06T16:37:18.777Z,0.65
2022-11-06T16:39:52.599Z,0.85
2022-11-06T16:42:22.202Z,0.70
2022-11-06T16:44:51.186Z,1.27
2022-11-06T16:47:20.242Z,0.93
2022-11-06T16:49:55.679Z,0.90
2022-11-06T16:52:27.267Z,0.77
2022-11-06T16:55:17.560Z,0.82
2022-11-06T16:57:44.493Z,0.73
2022-11-06T17:00:20.340Z,1.38
2022-11-06T17:02:55.182Z,0.80
2022-11-06T17:05:39.210Z,0.60
2022-11-06T17:08:28.035Z,0.88
2022-11-06T17:10:57.359Z,1.38
2022-11-06T17:13:27.942Z,1.23
2022-11-06T17:15:58.843Z,0.95
2022-11-06T17:18:28.865Z,1.27
2022-11-06T17:21:01.117Z,0.80
2022-11-06T17:23:29.839Z,1.53
2022-11-06T17:26:04.519Z,1.13
2022-11-06T17:28:31.377Z,1.65
2022-11-06T17:30:58.212Z,1.98
2022-11-06T17:33:25.069Z,1.27
2022-11-06T17:35:51.795Z,1.00
2022-11-06T17:38:18.649Z,0.85
2022-11-06T17:40:47.477Z,1.13
2022-11-06T17:43:14.761Z,0.95
2022-11-06T17:45:44.557Z,0.88
2022-11-06T17:48:11.444Z,0.75
2022-11-06T17:50:56.763Z,0.80
2022-11-06T17:53:23.812Z,0.98
2022-11-06T17:55:50.594Z,0.70
2022-11-06T17:58:17.441Z,1.00
2022-11-06T18:00:44.565Z,0.82
2022-11-06T18:03:19.793Z,0.68
2022-11-06T18:05:47.621Z,0.95
2022-11-06T18:08:15.044Z,0.60
2022-11-06T18:10:42.112Z,0.73
2022-11-06T18:13:08.867Z,0.88
2022-11-06T18:15:36.854Z,0.75
2022-11-06T18:18:04.080Z,0.98
2022-11-06T18:20:30.861Z,0.77
2022-11-06T18:22:57.623Z,0.88
2022-11-06T18:25:24.518Z,1.17
2022-11-06T18:27:51.268Z,0.73
2022-11-06T18:30:18.128Z,0.55
2022-11-06T18:32:44.951Z,1.10
2022-11-06T18:35:12.541Z,0.60
2022-11-06T18:37:39.387Z,0.80
2022-11-06T18:40:06.681Z,0.93
2022-11-06T18:42:33.434Z,0.88
2022-11-06T18:45:00.303Z,0.68
2022-11-06T18:47:27.061Z,1.15
2022-11-06T18:49:53.995Z,0.90
2022-11-06T18:52:44.316Z,0.95
2022-11-06T18:55:08.227Z,0.98
2022-11-06T18:57:35.186Z,0.93
2022-11-06T19:00:01.992Z,0.82
2022-11-06T19:02:29.099Z,0.93
2022-11-06T19:04:56.070Z,0.50
2022-11-06T19:07:22.901Z,0.90
2022-11-06T19:09:50.401Z,0.73
2022-11-06T19:12:17.106Z,1.00
2022-11-06T19:14:43.838Z,1.25
2022-11-06T19:17:10.730Z,1.02
2022-11-06T19:19:37.451Z,1.35
2022-11-06T19:22:04.189Z,0.98
2022-11-06T19:24:32.822Z,1.30
2022-11-06T19:26:59.627Z,0.85
2022-11-06T19:29:26.339Z,1.20
2022-11-06T19:31:55.189Z,0.98
2022-11-06T19:34:25.553Z,0.73
2022-11-06T19:36:53.136Z,1.05
2022-11-06T19:39:20.118Z,1.27
2022-11-06T19:41:46.874Z,0.90
2022-11-06T19:44:14.105Z,1.55
2022-11-06T19:46:41.283Z,0.80
2022-11-06T19:49:09.403Z,0.90
2022-11-06T19:51:42.903Z,0.88
2022-11-06T19:54:11.074Z,1.10
2022-11-06T19:57:27.578Z,0.70
2022-11-06T19:59:25.481Z,0.70
2022-11-06T20:01:52.306Z,1.60
2022-11-06T20:04:19.233Z,1.20
2022-11-06T20:06:46.066Z,1.10
2022-11-06T20:09:12.879Z,0.85
2022-11-06T20:11:39.661Z,1.05
2022-11-06T20:14:06.843Z,0.70
2022-11-06T20:16:33.717Z,1.20
2022-11-06T20:19:00.850Z,0.60
2022-11-06T20:21:28.615Z,1.38
2022-11-06T20:23:57.102Z,0.90
2022-11-06T20:26:24.441Z,0.90
2022-11-06T20:28:51.723Z,1.02
2022-11-06T20:31:19.705Z,1.08
2022-11-06T20:33:47.463Z,0.68
2022-11-06T20:36:23.665Z,0.70
2022-11-06T20:38:57.644Z,1.15
2022-11-06T20:41:24.847Z,1.15
2022-11-06T20:43:52.682Z,1.10
2022-11-06T20:46:20.874Z,1.20
2022-11-06T20:48:47.855Z,1.08
2022-11-06T20:51:23.761Z,0.75
2022-11-06T20:53:51.032Z,0.68
2022-11-06T20:56:20.597Z,0.93
2022-11-06T20:58:47.902Z,0.68
2022-11-06T21:01:18.154Z,1.40
2022-11-06T21:03:45.867Z,1.63
2022-11-06T21:06:13.949Z,1.17
2022-11-06T21:08:41.691Z,0.70
2022-11-06T21:11:23.523Z,1.10
2022-11-06T21:13:53.281Z,1.10
2022-11-06T21:16:24.340Z,0.70
2022-11-06T21:18:52.328Z,0.93
2022-11-06T21:21:23.185Z,1.35
2022-11-06T21:23:51.630Z,1.90
2022-11-06T21:26:30.501Z,1.75
2022-11-06T21:28:57.734Z,1.83
2022-11-06T21:31:27.459Z,1.40
2022-11-06T21:33:57.146Z,1.73
2022-11-06T21:36:32.523Z,1.60
2022-11-06T21:39:02.198Z,1.83
2022-11-06T21:41:30.917Z,1.90
2022-11-06T21:43:57.870Z,1.80
2022-11-06T21:46:25.044Z,1.17
2022-11-06T21:48:52.611Z,1.90
2022-11-06T21:51:21.602Z,2.30
2022-11-06T21:54:07.459Z,1.45
2022-11-06T21:56:34.713Z,2.55
2022-11-06T21:59:03.014Z,1.80
2022-11-06T22:01:31.224Z,1.60
2022-11-06T22:03:59.347Z,1.45
2022-11-06T22:06:27.470Z,1.60
2022-11-06T22:08:56.998Z,1.55
2022-11-06T22:11:30.726Z,1.25
2022-11-06T22:13:59.744Z,1.98
2022-11-06T22:16:29.952Z,1.70
2022-11-06T22:18:58.456Z,1.42
2022-11-06T22:21:27.433Z,1.05
2022-11-06T22:23:54.687Z,1.65
2022-11-06T22:26:23.803Z,1.05
2022-11-06T22:28:56.084Z,2.20
2022-11-06T22:31:23.993Z,1.43
2022-11-06T22:33:54.004Z,1.67
2022-11-06T22:36:22.097Z,1.30
2022-11-06T22:38:50.478Z,1.05
2022-11-06T22:41:20.682Z,1.45
2022-11-06T22:43:47.618Z,1.48
2022-11-06T22:46:23.402Z,1.48
2022-11-06T22:48:51.287Z,1.05
2022-11-06T22:51:20.893Z,1.83
2022-11-06T22:53:47.854Z,1.70
2022-11-06T22:56:14.763Z,1.98
2022-11-06T22:58:41.950Z,1.67
2022-11-06T23:01:10.155Z,1.42
2022-11-06T23:03:37.289Z,2.20
2022-11-06T23:06:06.372Z,1.33
2022-11-06T23:08:33.591Z,0.90
2022-11-06T23:11:07.863Z,2.05
2022-11-06T23:13:35.119Z,1.08
2022-11-06T23:16:09.022Z,1.48
2022-11-06T23:18:36.765Z,1.38
2022-11-06T23:21:12.208Z,1.85
2022-11-06T23:23:39.946Z,1.88
2022-11-06T23:26:15.945Z,1.65
2022-11-06T23:28:43.825Z,1.55
2022-11-06T23:31:12.521Z,1.30
2022-11-06T23:33:39.463Z,1.15
2022-11-06T23:36:11.485Z,1.48
2022-11-06T23:38:38.442Z,1.95
2022-11-06T23:41:26.946Z,1.35
2022-11-06T23:43:54.843Z,1.60
2022-11-06T23:46:24.453Z,1.92
2022-11-06T23:48:51.735Z,1.90
2022-11-06T23:51:18.639Z,1.58
2022-11-06T23:53:45.539Z,2.45
2022-11-06T23:56:13.535Z,1.60
2022-11-06T23:58:40.815Z,1.90
